Time;durP1;ratioP1;P1;durP2;ratioP2;P2;SDS_P1;SDS_P2;PMS_P1;PMS_P2;Temp;Humidity;BMP_temperature;BMP_pressure;BME280_temperature;BME280_humidity;BME280_pressure;Samples;Min_cycle;Max_cycle;Signal;HPM_P1;HPM_P2
2022/09/29 00:00:29;;;;;;;;;4.00;4.00;;;;;14.26;61.13;99573.50;5113389;27;44943;-67
2022/09/29 00:02:54;;;;;;;;;4.00;3.00;;;;;14.27;61.33;99575.28;5112926;27;45756;-67
2022/09/29 00:05:20;;;;;;;;;4.33;4.33;;;;;14.26;61.03;99562.75;5113061;27;44898;-66
2022/09/29 00:07:45;;;;;;;;;2.33;2.33;;;;;14.16;60.95;99535.06;5112690;27;45084;-66
2022/09/29 00:10:11;;;;;;;;;3.67;3.67;;;;;14.25;60.81;99552.88;5113508;27;45055;-68
2022/09/29 00:12:36;;;;;;;;;4.00;3.00;;;;;14.31;60.93;99554.66;5107344;27;46030;-66
2022/09/29 00:15:02;;;;;;;;;2.33;2.33;;;;;14.32;61.04;99569.84;5113021;27;45094;-66
2022/09/29 00:17:27;;;;;;;;;3.33;2.00;;;;;14.03;60.65;99529.81;5112902;27;44977;-66
2022/09/29 00:19:53;;;;;;;;;4.00;2.00;;;;;13.85;61.07;99495.91;5112729;27;45095;-67
2022/09/29 00:22:18;;;;;;;;;1.00;1.00;;;;;14.23;61.06;99560.06;5112457;27;45623;-67
2022/09/29 00:24:46;;;;;;;;;2.00;2.00;;;;;14.23;60.85;99560.06;5111486;27;45259;-67
2022/09/29 00:27:14;;;;;;;;;3.67;3.00;;;;;14.25;60.50;99557.38;5111716;27;45273;-66
2022/09/29 00:29:39;;;;;;;;;1.33;1.33;;;;;14.26;60.85;99562.75;5110237;27;45161;-67
2022/09/29 00:32:04;;;;;;;;;1.00;1.00;;;;;14.26;60.43;99554.69;5109662;27;59902;-66
2022/09/29 00:34:29;;;;;;;;;5.00;2.00;;;;;14.19;60.46;99547.59;5110911;27;45153;-67
2022/09/29 00:36:55;;;;;;;;;5.00;2.67;;;;;14.25;60.03;99554.69;5109846;27;48166;-66
2022/09/29 00:39:20;;;;;;;;;1.33;1.33;;;;;14.22;60.40;99557.41;5112945;27;44901;-67
2022/09/29 00:41:45;;;;;;;;;5.00;3.00;;;;;14.22;60.41;99546.66;5111182;27;45177;-68
2022/09/29 00:44:14;;;;;;;;;3.00;1.67;;;;;14.21;60.25;99550.25;5102834;27;45206;-66
2022/09/29 00:46:42;;;;;;;;;3.00;3.00;;;;;14.21;59.94;99551.16;5111947;27;46194;-65
2022/09/29 00:49:18;;;;;;;;;2.00;1.00;;;;;14.22;60.08;99546.66;5110827;27;45942;-66
2022/09/29 00:51:58;;;;;;;;;2.00;1.67;;;;;14.22;59.84;99543.97;5112877;27;45816;-66
2022/09/29 00:54:27;;;;;;;;;2.00;2.00;;;;;14.13;59.60;99529.69;5111191;27;45368;-66
2022/09/29 00:56:53;;;;;;;;;1.00;1.00;;;;;14.22;60.07;99536.78;5111610;27;45214;-66
2022/09/29 00:59:29;;;;;;;;;3.00;1.67;;;;;14.23;59.98;99537.69;5110587;27;45200;-67
2022/09/29 01:01:54;;;;;;;;;4.00;2.00;;;;;14.22;60.46;99541.28;5110637;27;45876;-67
2022/09/29 01:04:21;;;;;;;;;2.00;2.00;;;;;14.07;60.12;99526.19;5108740;27;44996;-66
2022/09/29 01:06:52;;;;;;;;;3.33;3.33;;;;;14.21;60.53;99540.41;5109724;27;45205;-68
2022/09/29 01:09:22;;;;;;;;;2.00;1.00;;;;;13.99;60.32;99513.72;5110170;27;45277;-67
2022/09/29 01:11:51;;;;;;;;;3.00;3.00;;;;;13.97;60.29;99512.84;5110528;27;45690;-67
2022/09/29 01:14:18;;;;;;;;;1.67;1.67;;;;;13.74;59.93;99475.41;5112073;27;45163;-67
2022/09/29 01:16:44;;;;;;;;;2.00;2.00;;;;;14.12;60.01;99535.09;5112521;27;45131;-67
2022/09/29 01:19:32;;;;;;;;;3.00;3.00;;;;;13.66;60.14;99460.25;5110232;27;45218;-67
2022/09/29 01:22:13;;;;;;;;;1.00;1.00;;;;;14.08;59.96;99533.34;5111473;27;45172;-67
2022/09/29 01:24:57;;;;;;;;;4.33;3.00;;;;;14.11;59.92;99526.16;5107554;27;45161;-68
2022/09/29 01:27:45;;;;;;;;;2.00;2.00;;;;;14.14;59.98;99519.88;5109843;27;45075;-67
2022/09/29 01:30:15;;;;;;;;;0.00;0.00;;;;;14.15;59.88;99519.81;5112007;27;44998;-67
2022/09/29 01:33:04;;;;;;;;;2.00;2.00;;;;;14.18;59.53;99511.75;5105935;27;45571;-68
2022/09/29 01:35:38;;;;;;;;;1.67;1.00;;;;;14.19;59.37;99513.53;5112377;27;44968;-68
2022/09/29 01:38:13;;;;;;;;;4.00;1.67;;;;;14.22;59.32;99506.34;5112117;27;45016;-66
2022/09/29 01:40:41;;;;;;;;;1.00;1.00;;;;;14.27;59.45;99502.75;5111996;27;45263;-68
2022/09/29 01:43:23;;;;;;;;;2.00;2.00;;;;;14.15;59.04;99486.72;5106612;27;45109;-68
2022/09/29 01:46:00;;;;;;;;;3.00;1.00;;;;;14.24;59.21;99500.09;5111178;27;45050;-67
2022/09/29 01:48:33;;;;;;;;;2.00;2.00;;;;;14.33;59.13;99518.78;5107065;27;45118;-67
2022/09/29 01:51:04;;;;;;;;;4.00;3.00;;;;;14.12;59.46;99493.03;5109826;27;45108;-66
2022/09/29 01:53:37;;;;;;;;;2.00;2.00;;;;;14.33;59.17;99513.41;5111993;27;46642;-66
2022/09/29 01:56:08;;;;;;;;;2.67;2.00;;;;;14.21;59.05;99491.16;5112232;27;45151;-67
2022/09/29 01:58:56;;;;;;;;;2.00;2.00;;;;;14.40;58.91;99521.44;5113377;27;45223;-67
2022/09/29 02:01:27;;;;;;;;;4.00;3.00;;;;;14.31;58.89;99504.47;5111884;27;45158;-69
2022/09/29 02:03:52;;;;;;;;;1.00;0.67;;;;;14.44;58.21;99521.41;5104751;27;45572;-66
2022/09/29 02:06:24;;;;;;;;;1.67;1.67;;;;;14.46;58.63;99524.06;5110860;27;45033;-68
2022/09/29 02:08:55;;;;;;;;;2.00;2.00;;;;;14.42;58.57;99515.16;5104380;27;45147;-70
2022/09/29 02:11:20;;;;;;;;;2.67;2.67;;;;;14.49;58.61;99522.25;5107688;27;45046;-68
2022/09/29 02:14:02;;;;;;;;;3.33;1.00;;;;;14.51;58.33;99528.47;5114393;27;45382;-68
2022/09/29 02:16:31;;;;;;;;;5.33;4.00;;;;;14.35;58.71;99500.88;5109949;27;45176;-67
2022/09/29 02:19:14;;;;;;;;;5.00;4.00;;;;;14.55;58.53;99526.66;5110970;27;46190;-67
2022/09/29 02:21:39;;;;;;;;;2.67;2.00;;;;;14.38;58.43;99499.94;5114981;27;45110;-67
2022/09/29 02:24:05;;;;;;;;;3.67;2.67;;;;;14.58;58.17;99526.63;5112902;27;46229;-67
2022/09/29 02:26:33;;;;;;;;;2.00;2.00;;;;;14.56;58.15;99528.44;5114892;27;45137;-69
2022/09/29 02:29:02;;;;;;;;;2.67;1.67;;;;;14.52;58.50;99524.03;5114829;27;45171;-67
2022/09/29 02:31:28;;;;;;;;;2.00;2.00;;;;;14.46;58.49;99524.94;5114666;27;45171;-68
2022/09/29 02:33:53;;;;;;;;;3.00;2.00;;;;;14.45;58.56;99522.28;5114596;27;46515;-67
2022/09/29 02:36:39;;;;;;;;;1.00;1.00;;;;;14.39;58.41;99512.50;5114099;27;44993;-66
2022/09/29 02:39:14;;;;;;;;;1.33;0.67;;;;;14.40;58.95;99521.44;5114552;27;45160;-68
2022/09/29 02:41:49;;;;;;;;;2.00;1.00;;;;;14.40;58.84;99525.00;5115062;27;45313;-67
2022/09/29 02:44:14;;;;;;;;;2.00;2.00;;;;;14.40;58.61;99525.00;5113812;27;45038;-68
2022/09/29 02:46:54;;;;;;;;;1.00;1.00;;;;;14.31;58.61;99519.72;5114478;27;44916;-69
2022/09/29 02:49:32;;;;;;;;;0.67;0.67;;;;;14.37;58.65;99525.94;5113290;27;46748;-68
2022/09/29 02:52:05;;;;;;;;;1.00;1.00;;;;;14.21;58.99;99500.09;5115265;27;45157;-68
2022/09/29 02:54:46;;;;;;;;;1.00;1.00;;;;;14.36;58.65;99516.06;5114420;27;46136;-67
2022/09/29 02:57:25;;;;;;;;;1.00;1.00;;;;;14.25;58.79;99498.28;5114798;27;45350;-66
2022/09/29 03:00:05;;;;;;;;;0.67;0.00;;;;;14.37;58.22;99514.31;5109060;27;45051;-68
2022/09/29 03:02:30;;;;;;;;;2.00;2.00;;;;;14.00;58.02;99452.81;5114250;27;45279;-67
2022/09/29 03:04:56;;;;;;;;;1.00;1.00;;;;;14.34;58.25;99515.22;5113849;27;46482;-68
2022/09/29 03:07:21;;;;;;;;;0.00;0.00;;;;;14.20;58.32;99487.56;5114901;27;45056;-68
2022/09/29 03:09:47;;;;;;;;;1.00;1.00;;;;;14.37;58.35;99503.56;5114713;27;45063;-68
2022/09/29 03:12:12;;;;;;;;;1.00;1.00;;;;;14.30;58.46;99491.94;5115095;27;45081;-67
2022/09/29 03:14:37;;;;;;;;;1.00;1.00;;;;;14.40;58.38;99498.13;5106213;27;45796;-67
2022/09/29 03:17:03;;;;;;;;;3.67;3.67;;;;;14.46;57.84;99511.50;5114496;27;44912;-67
2022/09/29 03:19:28;;;;;;;;;1.00;1.00;;;;;14.33;57.81;99482.97;5113644;27;62756;-68
2022/09/29 03:21:53;;;;;;;;;2.00;2.00;;;;;14.49;58.03;99500.75;5114349;27;55922;-66
2022/09/29 03:24:19;;;;;;;;;1.67;1.67;;;;;14.25;58.14;99463.34;5113742;27;54994;-66
2022/09/29 03:26:44;;;;;;;;;3.33;1.00;;;;;14.24;57.98;99466.94;5113566;27;44938;-68
2022/09/29 03:29:09;;;;;;;;;3.00;3.00;;;;;14.38;57.96;99499.94;5114286;27;47112;-68
2022/09/29 03:31:34;;;;;;;;;1.33;1.00;;;;;14.38;58.48;99502.63;5112881;27;45221;-67
2022/09/29 03:34:00;;;;;;;;;2.67;1.00;;;;;14.37;58.50;99503.56;5114222;27;45398;-69
2022/09/29 03:36:26;;;;;;;;;1.00;1.00;;;;;14.33;58.54;99504.47;5113996;27;44963;-67
2022/09/29 03:38:51;;;;;;;;;3.33;1.00;;;;;14.32;59.08;99505.38;5113252;27;45088;-68
2022/09/29 03:41:16;;;;;;;;;1.33;1.33;;;;;14.29;59.19;99511.69;5114161;27;45034;-68
2022/09/29 03:43:42;;;;;;;;;3.33;2.33;;;;;14.25;59.17;99504.53;5107406;27;45682;-67
2022/09/29 03:46:07;;;;;;;;;1.00;1.00;;;;;14.25;59.58;99503.66;5111791;27;46059;-68
2022/09/29 03:48:34;;;;;;;;;2.00;1.00;;;;;14.04;60.15;99475.16;5111861;27;45125;-68
2022/09/29 03:50:59;;;;;;;;;1.00;1.00;;;;;14.13;59.84;99478.66;5113138;27;45036;-68
2022/09/29 03:53:25;;;;;;;;;2.00;2.00;;;;;14.09;60.13;99470.66;5113298;27;45485;-67
2022/09/29 03:55:51;;;;;;;;;2.00;1.00;;;;;14.16;60.71;99497.44;5112763;27;44914;-68
2022/09/29 03:58:17;;;;;;;;;3.00;2.67;;;;;14.21;60.78;99504.59;5113030;27;45319;-68
2022/09/29 04:00:43;;;;;;;;;3.00;2.00;;;;;14.12;61.05;99497.47;5113244;27;45505;-68
2022/09/29 04:03:09;;;;;;;;;2.33;2.33;;;;;14.16;61.45;99501.94;5110755;27;45749;-68
2022/09/29 04:05:37;;;;;;;;;3.00;1.00;;;;;14.09;61.22;99493.03;5113325;27;45077;-67
2022/09/29 04:08:03;;;;;;;;;2.00;2.00;;;;;14.11;62.14;99509.16;5112673;27;45166;-67
2022/09/29 04:10:28;;;;;;;;;2.00;2.00;;;;;13.97;62.12;99490.44;5106942;27;45214;-69
2022/09/29 04:12:53;;;;;;;;;2.00;2.00;;;;;14.02;62.15;99507.41;5110021;27;45095;-68
2022/09/29 04:15:19;;;;;;;;;3.67;3.67;;;;;14.03;62.62;99502.94;5112364;27;60345;-68
2022/09/29 04:17:44;;;;;;;;;4.67;3.00;;;;;14.00;62.25;99503.84;5112570;27;46565;-68
2022/09/29 04:20:09;;;;;;;;;3.67;3.00;;;;;13.95;62.13;99486.88;5112906;27;52213;-68
2022/09/29 04:22:35;;;;;;;;;3.67;3.00;;;;;13.99;62.19;99499.38;5112229;27;45071;-67
2022/09/29 04:25:00;;;;;;;;;2.00;2.00;;;;;14.08;62.17;99518.09;5112826;27;58559;-68
2022/09/29 04:27:25;;;;;;;;;5.67;3.00;;;;;14.06;62.84;99516.34;5112507;27;58258;-67
2022/09/29 04:29:51;;;;;;;;;2.33;2.33;;;;;13.88;62.97;99485.16;5112149;27;44937;-67
2022/09/29 04:32:16;;;;;;;;;3.00;3.00;;;;;13.78;62.41;99487.03;5113111;27;45472;-67
2022/09/29 04:34:41;;;;;;;;;3.00;3.00;;;;;13.94;62.90;99520.00;5111918;27;45301;-68
2022/09/29 04:37:10;;;;;;;;;2.00;2.00;;;;;13.79;62.97;99512.94;5106959;27;45150;-69
2022/09/29 04:39:35;;;;;;;;;1.33;0.33;;;;;13.88;63.66;99522.75;5114077;27;44873;-67
2022/09/29 04:42:01;;;;;;;;;4.67;2.33;;;;;13.55;63.46;99458.53;5111376;27;45605;-66
2022/09/29 04:44:26;;;;;;;;;2.67;2.00;;;;;13.92;63.29;99524.50;5107423;27;45035;-66
2022/09/29 04:46:52;;;;;;;;;5.00;3.00;;;;;13.78;62.99;99492.38;5111615;27;45010;-68
2022/09/29 04:49:18;;;;;;;;;3.67;2.67;;;;;13.97;62.96;99522.66;5113019;27;45212;-69
2022/09/29 04:51:43;;;;;;;;;4.00;3.00;;;;;13.97;63.27;99515.53;5112781;27;45654;-67
2022/09/29 04:54:08;;;;;;;;;2.33;2.33;;;;;14.00;63.23;99525.34;5111290;27;58822;-69
2022/09/29 04:56:33;;;;;;;;;2.33;2.33;;;;;13.94;62.84;99511.94;5111605;27;45312;-71
2022/09/29 04:58:59;;;;;;;;;4.00;2.00;;;;;13.99;63.13;99507.41;5107419;27;45191;-67
2022/09/29 05:01:24;;;;;;;;;4.00;3.33;;;;;13.96;62.83;99507.47;5111340;27;45741;-69
2022/09/29 05:03:50;;;;;;;;;4.33;3.00;;;;;14.00;63.15;99509.22;5105922;27;44956;-68
2022/09/29 05:06:16;;;;;;;;;3.67;2.00;;;;;13.89;62.99;99497.66;5112827;27;45320;-68
2022/09/29 05:08:41;;;;;;;;;4.00;2.67;;;;;13.96;63.34;99515.53;5113121;27;45102;-69
2022/09/29 05:11:08;;;;;;;;;3.00;3.00;;;;;13.99;62.97;99524.44;5114707;27;45174;-67
2022/09/29 05:13:34;;;;;;;;;4.00;2.33;;;;;13.81;63.21;99484.31;5111394;27;45378;-68
2022/09/29 05:16:00;;;;;;;;;2.00;1.67;;;;;13.92;62.79;99501.22;5111923;27;45069;-67
2022/09/29 05:18:25;;;;;;;;;3.00;3.00;;;;;14.08;62.96;99522.59;5112156;27;45054;-68
2022/09/29 05:20:50;;;;;;;;;5.00;4.00;;;;;14.07;63.15;99520.81;5111218;27;45174;-66
2022/09/29 05:23:16;;;;;;;;;3.00;3.00;;;;;14.03;62.54;99528.00;5111288;27;45049;-71
2022/09/29 05:25:42;;;;;;;;;4.33;4.33;;;;;14.01;63.31;99519.06;5112194;27;47019;-68
2022/09/29 05:28:09;;;;;;;;;6.00;5.00;;;;;14.02;62.84;99523.50;5109625;27;45052;-68
2022/09/29 05:30:35;;;;;;;;;8.00;7.33;;;;;13.95;62.74;99527.16;5112296;27;45456;-68
2022/09/29 05:33:00;;;;;;;;;5.00;5.00;;;;;13.80;63.36;99507.56;5112016;27;45023;-68
2022/09/29 05:35:25;;;;;;;;;3.33;3.33;;;;;13.94;63.34;99533.41;5109639;27;46289;-68
2022/09/29 05:37:51;;;;;;;;;5.67;3.33;;;;;13.82;63.35;99515.59;5111408;27;45205;-68
2022/09/29 05:40:16;;;;;;;;;4.33;3.00;;;;;13.90;63.37;99539.72;5111221;27;45094;-67
2022/09/29 05:42:41;;;;;;;;;5.33;3.33;;;;;13.90;63.14;99534.38;5104803;27;46269;-69
2022/09/29 05:45:09;;;;;;;;;5.00;4.00;;;;;13.66;63.08;99493.38;5109814;27;45102;-71
2022/09/29 05:47:34;;;;;;;;;5.00;5.00;;;;;13.75;63.72;99516.56;5111714;27;44940;-67
2022/09/29 05:50:00;;;;;;;;;5.00;3.33;;;;;13.86;62.90;99532.59;5111569;27;45541;-66
2022/09/29 05:52:25;;;;;;;;;3.00;3.00;;;;;13.86;62.87;99530.81;5111594;27;45004;-68
2022/09/29 05:54:50;;;;;;;;;3.67;3.00;;;;;13.91;63.21;99534.34;5112755;27;45603;-69
2022/09/29 05:57:17;;;;;;;;;4.00;4.00;;;;;13.91;62.98;99528.97;5113761;27;53404;-68
2022/09/29 05:59:43;;;;;;;;;3.67;3.00;;;;;13.97;62.65;99545.06;5111477;27;45446;-69
2022/09/29 06:02:08;;;;;;;;;4.00;3.67;;;;;14.00;62.77;99542.31;5111900;27;54759;-67
2022/09/29 06:04:34;;;;;;;;;6.00;5.00;;;;;13.88;62.85;99512.88;5114891;27;45083;-67
2022/09/29 06:07:00;;;;;;;;;11.33;9.33;;;;;14.09;62.86;99545.84;5113053;27;45147;-67
2022/09/29 06:09:25;;;;;;;;;6.33;4.67;;;;;14.06;62.27;99536.03;5114443;27;45556;-67
2022/09/29 06:11:50;;;;;;;;;3.00;3.00;;;;;14.06;62.52;99538.72;5103239;27;54418;-67
2022/09/29 06:14:15;;;;;;;;;14.00;10.50;;;;;14.05;62.77;99534.25;5109342;27;45038;-67
2022/09/29 06:16:41;;;;;;;;;5.00;3.33;;;;;14.01;62.73;99532.50;5114676;27;45039;-66
2022/09/29 06:19:06;;;;;;;;;6.00;4.33;;;;;14.10;62.45;99544.97;5110893;27;45937;-68
2022/09/29 06:21:34;;;;;;;;;19.00;19.00;;;;;13.74;62.64;99482.56;5112629;27;53752;-69
2022/09/29 06:24:00;;;;;;;;;9.00;7.00;;;;;13.96;62.36;99511.03;5113020;27;45589;-69
2022/09/29 06:26:26;;;;;;;;;10.00;7.33;;;;;14.07;62.14;99520.81;5111976;27;45374;-69
2022/09/29 06:28:52;;;;;;;;;10.00;10.00;;;;;14.25;61.96;99547.50;5111919;27;45364;-68
2022/09/29 06:31:20;;;;;;;;;13.00;11.00;;;;;13.87;62.26;99473.50;5110771;27;45173;-69
2022/09/29 06:33:45;;;;;;;;;21.75;20.25;;;;;14.36;62.21;99551.00;5113771;27;45330;-69
2022/09/29 06:39:27;;;;;;;;;12.00;9.00;;;;;14.35;61.42;99543.88;5107911;27;45612;-69
2022/09/29 06:41:55;;;;;;;;;11.67;11.67;;;;;14.30;61.55;99543.00;5106534;27;45417;-68
2022/09/29 06:44:23;;;;;;;;;13.00;10.00;;;;;14.13;61.41;99520.75;5108185;27;45219;-68
2022/09/29 06:46:49;;;;;;;;;10.67;6.00;;;;;14.34;61.86;99550.13;5110516;27;45059;-68
2022/09/29 06:49:15;;;;;;;;;3.67;3.67;;;;;14.26;61.45;99543.94;5092026;28;45495;-69
2022/09/29 06:51:42;;;;;;;;;6.33;5.00;;;;;14.16;61.55;99521.63;5093367;28;45060;-69
2022/09/29 06:54:11;;;;;;;;;9.00;7.33;;;;;14.35;61.78;99553.72;5092217;28;45176;-69
2022/09/29 06:56:36;;;;;;;;;6.00;6.00;;;;;14.35;61.53;99551.94;5086655;28;45186;-69
2022/09/29 06:59:02;;;;;;;;;6.00;6.00;;;;;14.28;61.43;99555.56;5085796;28;45590;-66
2022/09/29 07:01:27;;;;;;;;;4.00;4.00;;;;;14.11;61.45;99536.00;5092559;28;45046;-67
2022/09/29 07:03:53;;;;;;;;;4.00;4.00;;;;;14.22;61.75;99555.59;5092452;28;45290;-68
2022/09/29 07:06:18;;;;;;;;;9.33;5.67;;;;;14.13;62.00;99553.88;5091534;27;45321;-68
2022/09/29 07:08:44;;;;;;;;;6.00;5.00;;;;;13.90;61.96;99502.13;5093244;28;45261;-66
2022/09/29 07:11:09;;;;;;;;;5.00;4.67;;;;;14.18;62.19;99556.53;5092800;28;45142;-69
2022/09/29 07:13:36;;;;;;;;;5.00;5.00;;;;;14.20;62.60;99565.47;5092230;28;45339;-68
2022/09/29 07:16:06;;;;;;;;;10.00;10.00;;;;;14.31;62.08;99568.09;5092394;28;45378;-69
2022/09/29 07:18:37;;;;;;;;;8.00;8.00;;;;;14.32;61.92;99564.47;5092425;28;45452;-67
2022/09/29 07:21:04;;;;;;;;;11.50;9.25;;;;;14.38;62.21;99572.50;5074397;28;45120;-69
2022/09/29 07:23:29;;;;;;;;;9.00;7.33;;;;;14.34;61.45;99563.56;5092726;28;45171;-69
2022/09/29 07:25:55;;;;;;;;;10.67;7.67;;;;;14.44;61.58;99579.63;5092292;28;44851;-70
2022/09/29 07:28:21;;;;;;;;;17.00;11.50;;;;;14.44;61.52;99582.31;5092767;28;45489;-68
2022/09/29 07:30:46;;;;;;;;;9.33;9.00;;;;;14.44;61.61;99575.13;5086868;28;45349;-69
2022/09/29 07:33:12;;;;;;;;;6.75;6.75;;;;;14.46;61.52;99581.38;5075955;27;45739;-68
2022/09/29 07:35:37;;;;;;;;;8.00;7.33;;;;;14.28;61.80;99542.13;5050761;28;45839;-68
2022/09/29 07:38:02;;;;;;;;;6.00;6.00;;;;;14.51;60.96;99586.72;5071721;28;45483;-69
2022/09/29 07:40:27;;;;;;;;;9.33;7.67;;;;;14.61;61.44;99593.84;5068854;28;46357;-69
2022/09/29 07:42:53;;;;;;;;;14.25;12.00;;;;;14.53;61.29;99569.66;5068033;28;45615;-69
2022/09/29 07:45:19;;;;;;;;;11.67;8.33;;;;;14.73;61.07;99601.81;5073767;28;49230;-67
2022/09/29 07:47:44;;;;;;;;;11.00;9.33;;;;;14.68;61.22;99594.66;5073939;27;45890;-69
2022/09/29 07:50:11;;;;;;;;;9.33;9.00;;;;;14.59;61.25;99586.66;5074174;28;45462;-69
2022/09/29 07:52:36;;;;;;;;;9.00;7.67;;;;;14.52;61.43;99600.16;5071431;28;45643;-68
2022/09/29 07:55:02;;;;;;;;;11.33;9.00;;;;;14.45;61.35;99573.34;5074417;28;45650;-68
2022/09/29 07:57:27;;;;;;;;;9.67;7.67;;;;;14.36;60.97;99563.56;5072965;28;46480;-68
2022/09/29 07:59:53;;;;;;;;;7.00;7.00;;;;;14.53;61.29;99603.72;5073683;28;45444;-68
2022/09/29 08:02:19;;;;;;;;;11.33;8.00;;;;;14.50;61.45;99610.03;5054266;28;45482;-68
2022/09/29 08:04:45;;;;;;;;;6.00;5.67;;;;;14.56;60.94;99614.44;5073911;28;45509;-68
2022/09/29 08:07:10;;;;;;;;;10.67;9.00;;;;;14.47;61.09;99603.75;5072380;28;46470;-67
2022/09/29 08:09:36;;;;;;;;;6.00;6.00;;;;;14.38;61.66;99573.38;5074013;28;45389;-68
2022/09/29 08:12:01;;;;;;;;;14.00;12.67;;;;;14.65;61.14;99619.81;5074426;28;45558;-67
2022/09/29 08:14:27;;;;;;;;;13.67;12.00;;;;;14.71;61.09;99630.47;5069715;28;45576;-69
2022/09/29 08:16:52;;;;;;;;;11.33;10.33;;;;;14.76;60.67;99627.75;5071285;28;46926;-67
2022/09/29 08:19:18;;;;;;;;;11.67;10.00;;;;;14.77;60.19;99623.28;5073308;28;45350;-67
2022/09/29 08:21:44;;;;;;;;;19.00;14.75;;;;;14.62;60.27;99600.09;5073363;28;55482;-68
2022/09/29 08:24:12;;;;;;;;;12.00;11.75;;;;;14.64;59.94;99603.69;5073747;28;45468;-69
2022/09/29 08:26:39;;;;;;;;;46.00;37.00;;;;;14.75;60.18;99617.94;5069228;28;46394;-67
2022/09/29 08:29:04;;;;;;;;;7.67;7.67;;;;;14.75;59.65;99612.56;5072379;28;45454;-68
2022/09/29 08:31:29;;;;;;;;;11.33;9.67;;;;;14.93;59.32;99638.34;5072053;28;45283;-69
2022/09/29 08:33:57;;;;;;;;;10.67;9.00;;;;;14.52;59.07;99567.91;5075298;27;45323;-68
2022/09/29 08:36:23;;;;;;;;;9.67;9.00;;;;;14.98;59.30;99639.22;5069223;28;46065;-70
2022/09/29 08:38:51;;;;;;;;;10.00;8.33;;;;;14.91;59.64;99627.63;5066228;28;45430;-69
2022/09/29 08:41:38;;;;;;;;;7.33;7.33;;;;;15.06;59.04;99647.19;5073318;28;45501;-68
2022/09/29 08:44:09;;;;;;;;;6.67;6.67;;;;;15.07;58.46;99649.00;5073520;28;45463;-68
2022/09/29 08:47:00;;;;;;;;;9.67;9.67;;;;;14.87;58.79;99611.53;5073303;28;46262;-69
2022/09/29 08:49:31;;;;;;;;;8.33;8.33;;;;;14.92;58.10;99615.06;5072331;28;45918;-70
2022/09/29 08:52:04;;;;;;;;;12.25;12.25;;;;;14.93;58.59;99600.69;5073252;27;45681;-68
2022/09/29 08:54:33;;;;;;;;;13.00;11.00;;;;;15.16;57.91;99638.13;5073762;27;45579;-69
2022/09/29 08:57:00;;;;;;;;;8.25;7.75;;;;;15.25;57.94;99653.31;5073418;28;45393;-68
2022/09/29 08:59:28;;;;;;;;;6.33;6.33;;;;;15.30;57.39;99649.66;5076876;27;45503;-67
2022/09/29 09:02:02;;;;;;;;;24.75;16.50;;;;;15.46;57.77;99661.16;5078389;28;45290;-70
2022/09/29 09:04:41;;;;;;;;;35.75;28.25;;;;;15.57;58.32;99668.19;5072746;27;45599;-68
2022/09/29 09:07:53;;;;;;;;;13.00;11.33;;;;;15.73;57.79;99664.41;5073079;28;45498;-69
2022/09/29 09:10:49;;;;;;;;;15.25;13.00;;;;;15.25;57.28;99560.00;5035277;27;45485;-69
2022/09/29 09:13:35;;;;;;;;;12.33;9.00;;;;;15.84;56.50;99658.94;5067485;28;45509;-70
2022/09/29 09:16:47;;;;;;;;;14.33;9.33;;;;;15.92;56.32;99667.81;5071878;27;45482;-68
2022/09/29 09:19:40;;;;;;;;;13.00;11.00;;;;;15.93;56.36;99666.00;5032291;28;46433;-68
2022/09/29 09:22:22;;;;;;;;;13.00;12.00;;;;;15.89;56.35;99669.63;5072890;27;45438;-70
2022/09/29 09:24:55;;;;;;;;;11.00;9.67;;;;;15.79;56.57;99668.88;5072501;28;45516;-67
2022/09/29 09:27:25;;;;;;;;;18.00;15.00;;;;;15.64;56.90;99670.81;5071110;28;45616;-70
2022/09/29 09:30:01;;;;;;;;;10.00;10.00;;;;;15.66;56.85;99676.19;5074038;28;46122;-67
2022/09/29 09:32:31;;;;;;;;;14.67;11.67;;;;;15.62;56.99;99672.66;5076970;27;45618;-67
2022/09/29 09:35:08;;;;;;;;;13.50;12.75;;;;;15.19;57.32;99600.44;5077163;27;45723;-70
2022/09/29 09:37:39;;;;;;;;;10.67;9.67;;;;;15.51;56.94;99669.19;5076830;28;45527;-67
2022/09/29 09:40:08;;;;;;;;;7.33;6.67;;;;;15.54;57.32;99671.84;5076630;27;46442;-68
2022/09/29 09:42:38;;;;;;;;;14.50;13.25;;;;;15.19;57.48;99629.16;5070844;28;45452;-69
2022/09/29 09:45:13;;;;;;;;;11.00;10.00;;;;;15.33;57.26;99658.59;5076478;28;45461;-68
2022/09/29 09:47:48;;;;;;;;;15.00;14.75;;;;;15.48;56.83;99685.34;5083638;27;45354;-68
2022/09/29 09:50:19;;;;;;;;;20.50;16.25;;;;;15.46;57.14;99689.88;5096891;27;45581;-69
2022/09/29 09:53:26;;;;;;;;;14.33;14.33;;;;;15.42;57.07;99693.50;5097189;27;45400;-69
2022/09/29 09:56:22;;;;;;;;;50.25;41.50;;;;;15.36;57.07;99690.84;5096153;27;45445;-69
2022/09/29 09:59:10;;;;;;;;;12.67;11.67;;;;;15.15;56.40;99665.97;5087961;27;45694;-68
2022/09/29 10:01:36;;;;;;;;;17.00;13.00;;;;;15.29;56.49;99688.25;5089525;27;45697;-70
2022/09/29 10:04:04;;;;;;;;;13.33;11.33;;;;;15.21;56.10;99665.00;5090359;27;45589;-69
2022/09/29 10:06:30;;;;;;;;;9.67;7.67;;;;;15.51;56.07;99696.09;5089877;27;45542;-69
2022/09/29 10:08:56;;;;;;;;;13.75;12.25;;;;;15.61;55.89;99691.50;5096413;27;45338;-70
2022/09/29 10:11:27;;;;;;;;;9.00;7.00;;;;;15.62;55.54;99674.41;5096067;27;45795;-70
2022/09/29 10:14:20;;;;;;;;;11.33;8.00;;;;;15.68;55.17;99697.72;5096242;27;45661;-69
2022/09/29 10:16:52;;;;;;;;;11.00;11.00;;;;;15.44;54.76;99659.38;5092951;27;45405;-69
2022/09/29 10:19:40;;;;;;;;;12.67;10.67;;;;;15.63;55.08;99695.94;5096402;27;45491;-69
2022/09/29 10:22:17;;;;;;;;;17.67;15.00;;;;;15.68;55.13;99701.28;5094713;27;48032;-70
2022/09/29 10:24:42;;;;;;;;;20.33;16.67;;;;;15.58;54.85;99688.84;5096157;27;45350;-70
2022/09/29 10:27:09;;;;;;;;;16.33;10.00;;;;;15.77;54.56;99701.22;5094711;27;45447;-71
2022/09/29 10:29:41;;;;;;;;;14.33;10.00;;;;;15.73;54.86;99703.94;5095830;27;45499;-70
2022/09/29 10:32:13;;;;;;;;;10.33;10.33;;;;;15.65;55.72;99688.72;5095328;27;45937;-69
2022/09/29 10:34:46;;;;;;;;;14.00;11.67;;;;;15.71;56.23;99689.59;5095997;27;45394;-69
2022/09/29 10:37:37;;;;;;;;;15.33;13.67;;;;;15.81;56.85;99697.56;5085692;27;45476;-69
2022/09/29 10:40:12;;;;;;;;;18.00;13.67;;;;;15.82;56.83;99693.97;5095739;27;45601;-69
2022/09/29 10:42:47;;;;;;;;;18.33;12.33;;;;;15.77;56.93;99686.84;5089425;27;46043;-70
2022/09/29 10:45:14;;;;;;;;;14.00;13.33;;;;;15.76;56.94;99707.50;5089708;27;45516;-69
2022/09/29 10:47:43;;;;;;;;;16.67;15.00;;;;;15.69;57.10;99695.00;5095327;27;46417;-70
2022/09/29 10:50:15;;;;;;;;;16.67;14.33;;;;;15.69;56.88;99688.69;5095558;27;45486;-69
2022/09/29 10:52:49;;;;;;;;;16.00;15.00;;;;;15.77;56.60;99716.47;5095189;27;46224;-68
2022/09/29 10:55:24;;;;;;;;;16.33;13.67;;;;;15.63;56.67;99716.59;5096225;27;45556;-69
2022/09/29 10:57:51;;;;;;;;;12.33;11.67;;;;;15.56;56.61;99720.25;5095958;27;45656;-70
2022/09/29 11:00:28;;;;;;;;;9.00;8.67;;;;;15.62;57.01;99742.66;5096412;27;45306;-69
2022/09/29 11:03:25;;;;;;;;;11.33;10.33;;;;;15.47;57.55;99737.41;5093453;27;47300;-69
2022/09/29 11:05:58;;;;;;;;;15.00;14.00;;;;;15.38;58.30;99738.38;5087472;27;45488;-68
2022/09/29 11:08:27;;;;;;;;;14.75;13.25;;;;;15.41;60.47;99743.75;5095682;27;45430;-67
2022/09/29 11:11:20;;;;;;;;;10.33;9.00;;;;;15.34;60.62;99755.47;5095965;27;45850;-67
2022/09/29 11:13:46;;;;;;;;;12.33;10.00;;;;;15.30;61.22;99754.59;5095924;27;45625;-68
2022/09/29 11:16:17;;;;;;;;;13.33;11.00;;;;;15.17;61.88;99735.91;5095250;27;52708;-69
2022/09/29 11:18:51;;;;;;;;;32.75;30.00;;;;;15.07;62.09;99729.69;5095950;27;45516;-69
2022/09/29 11:21:20;;;;;;;;;16.25;14.50;;;;;15.28;62.60;99764.50;5095983;27;45318;-69
2022/09/29 11:24:06;;;;;;;;;16.50;15.00;;;;;15.16;62.62;99744.88;5095420;27;45403;-68
2022/09/29 11:26:53;;;;;;;;;24.00;22.25;;;;;15.05;62.20;99728.81;5094643;27;45364;-69
2022/09/29 11:29:42;;;;;;;;;12.25;12.25;;;;;15.25;62.65;99763.63;5095641;27;45313;-68
2022/09/29 11:32:49;;;;;;;;;8.00;8.00;;;;;15.17;60.64;99757.41;5089877;27;45385;-69
2022/09/29 11:35:52;;;;;;;;;11.33;7.33;;;;;15.13;61.54;99764.63;5095093;27;46183;-68
2022/09/29 11:38:18;;;;;;;;;11.75;10.25;;;;;15.14;61.30;99765.50;5012466;28;45588;-67
2022/09/29 11:40:52;;;;;;;;;10.00;6.00;;;;;14.99;60.03;99753.06;5018120;28;45623;-68
2022/09/29 11:43:44;;;;;;;;;12.75;9.50;;;;;14.94;60.28;99763.88;5059312;27;45571;-70
2022/09/29 11:46:48;;;;;;;;;8.00;6.00;;;;;14.96;59.99;99782.69;5094728;27;47106;-69